Pagina principale
METAR-TAF:

METAR-TAF

Aeroporti :

Grazzanise, Italia

latitudine: 41-03N, longitudine: 014-04E, altezza: 9 m

Osservazione

Il bollettino è stato emesso 50 minuti fa, alle 12:55 UTC
Temperature 7°C
Umidità 81%
Pressione 990 hPa
Visibilità 10 km o più
Nubi sparse ad un'altezza di 2500 ft
Nuvoloso ad un'altezza di 4000 ft
pioggia debole

METAR: LIRM 241255Z /////KT 9999 -RA SCT025 BKN040 07/04 Q0990

Ora: 14:45 (13:45 UTC)

Previsione

Il bollettino è stato emesso 2 ore e 45 minuti fa, alle 11:00 UTC
Previsione valida dal 24 alle 12 UTC al 24 alle 21 UTC
Vento 18 kt da nord-est
Visibilità 10 km o più
Nubi sparse ad un'altezza di 3000 ft
Nuvoloso ad un'altezza di 6000 ft
Temporaneamente
dal 24 alle 12 UTC al 24 alle 16 UTC
Vento 18 kt da nord-est con raffiche fino a 28 kt
Temporaneamente
dal 24 alle 15 UTC al 24 alle 21 UTC
pioggia

TAF: LIRM 241100Z 2412/2421 04018KT 9999 SCT030 BKN060 TEMPO 2412/2416 04018G28KT TEMPO 2415/2421 RA

Osservazioni e previsioni meteorologiche di più di 4000 aeroporti (messaggi METAR e TAF).

Le stazioni disponibili sono rappresentate dai dischi gialli e rossi sulla carta.

Puntare il mouse per vedere il nome della stazione.

Clicca sopra per visualizzare le osservazioni e previsioni meteorologiche.

Per cambiare la mappa : fare clic sui pulsanti verdi con una croce nera per ingrandire, il pulsante verde con un trattino per diminuire, o sulla freccia verde per le mappe adiacenti.


METAR-TAF: